createdAt,value
2019-05-14T00:00:17.846Z,91.28
2019-05-14T00:01:17.485Z,91.19
2019-05-14T00:02:17.503Z,91.47
2019-05-14T00:06:47.324Z,92.42
2019-05-14T00:07:47.332Z,92.28
2019-05-14T00:08:47.316Z,92.42
2019-05-14T00:09:47.325Z,92.42
2019-05-14T00:10:47.339Z,92.42
2019-05-14T00:11:47.318Z,92.23
2019-05-14T00:12:47.324Z,92.47
2019-05-14T00:13:47.318Z,92.18
2019-05-14T00:14:47.380Z,92.71
2019-05-14T00:15:47.349Z,92.51
2019-05-14T00:16:47.334Z,92.32
2019-05-14T00:17:47.315Z,92.32
2019-05-14T00:18:47.327Z,92.75
2019-05-14T00:19:47.315Z,92.42
2019-05-14T00:20:47.342Z,92.9
2019-05-14T00:21:48.005Z,92.42
2019-05-14T00:22:48.291Z,92.99
2019-05-14T00:23:47.352Z,93.46
2019-05-14T00:24:47.350Z,93.18
2019-05-14T00:25:47.695Z,93.46
2019-05-14T00:26:47.512Z,93.8
2019-05-14T00:27:47.326Z,94.37
2019-05-14T00:28:47.333Z,94.37
2019-05-14T00:29:47.383Z,95.6
2019-05-14T00:30:47.384Z,95.12
2019-05-14T00:31:47.334Z,95.89
2019-05-14T00:32:47.337Z,96.45
2019-05-14T00:33:47.385Z,96.45
2019-05-14T00:34:47.355Z,96.03
2019-05-14T00:35:47.384Z,96.5
2019-05-14T00:36:47.363Z,96.5
2019-05-14T00:37:47.381Z,96.5
2019-05-14T00:38:47.360Z,96.64
2019-05-14T00:39:47.342Z,96.88
2019-05-14T00:40:47.370Z,96.69
2019-05-14T00:41:47.379Z,96.59
2019-05-14T00:42:47.383Z,96.59
2019-05-14T00:43:47.392Z,96.5
2019-05-14T00:45:01.162Z,95.84
2019-05-14T00:45:47.386Z,96.69
2019-05-14T00:46:47.392Z,96.22
2019-05-14T00:47:47.365Z,95.84
2019-05-14T00:48:47.407Z,95.84
2019-05-14T00:49:47.377Z,95.7
2019-05-14T00:50:47.375Z,95.51
2019-05-14T00:51:47.386Z,95.55
2019-05-14T00:52:51.460Z,95.55
2019-05-14T00:53:47.378Z,95.74
2019-05-14T00:54:47.404Z,96.31
2019-05-14T00:55:47.389Z,96.41
2019-05-14T00:56:47.399Z,96.41
2019-05-14T00:57:47.410Z,96.59
2019-05-14T00:58:47.417Z,96.5
2019-05-14T00:59:47.400Z,96.59
2019-05-14T01:01:04.978Z,96.88
2019-05-14T01:02:05.822Z,96.5
2019-05-14T01:03:05.131Z,96.17
2019-05-14T01:04:04.934Z,95.84
2019-05-14T01:05:04.940Z,95.51
2019-05-14T01:06:05.787Z,95.55
2019-05-14T01:07:05.058Z,95.65
2019-05-14T01:08:04.943Z,95.74
2019-05-14T01:09:04.993Z,95.7
2019-05-14T01:10:05.034Z,95.31
2019-05-14T01:11:05.022Z,95.03
2019-05-14T01:12:04.989Z,95.17
2019-05-14T01:13:05.354Z,95.27
2019-05-14T01:14:05.030Z,95.41
2019-05-14T01:15:15.990Z,95.6
2019-05-14T01:16:04.994Z,95.7
2019-05-14T01:17:04.964Z,95.41
2019-05-14T01:18:05.048Z,95.6
2019-05-14T01:19:04.977Z,95.79
2019-05-14T01:20:05.826Z,95.22
2019-05-14T01:21:04.993Z,95.51
2019-05-14T01:22:05.034Z,95.41
2019-05-14T01:23:05.060Z,95.6
2019-05-14T01:24:05.025Z,95.98
2019-05-14T01:25:05.321Z,96.03
2019-05-14T01:26:05.231Z,96.59
2019-05-14T01:27:04.991Z,96.5
2019-05-14T01:28:05.033Z,96.03
2019-05-14T01:29:04.952Z,96.59
2019-05-14T01:30:04.998Z,96.97
2019-05-14T01:31:05.288Z,97.36
2019-05-14T01:32:05.005Z,97.64
2019-05-14T01:33:04.978Z,97.55
2019-05-14T01:34:05.092Z,97.55
2019-05-14T01:35:04.998Z,97.74
2019-05-14T01:36:04.981Z,98.4
2019-05-14T01:37:05.362Z,98.78
2019-05-14T01:38:05.466Z,98.68
2019-05-14T01:39:05.003Z,98.97
2019-05-14T01:40:05.011Z,98.49
2019-05-14T01:41:05.014Z,98.59
2019-05-14T01:42:05.388Z,98.4
2019-05-14T01:43:05.395Z,98.3
2019-05-14T01:44:05.053Z,97.55
2019-05-14T01:45:05.353Z,97.55
2019-05-14T01:46:04.983Z,97.64
2019-05-14T01:47:05.223Z,97.69
2019-05-14T01:48:05.078Z,97.36
2019-05-14T01:49:04.986Z,97.55
2019-05-14T01:50:06.080Z,97.78
2019-05-14T01:51:05.081Z,97.83
2019-05-14T01:52:05.009Z,97.36
2019-05-14T01:53:04.990Z,97.88
2019-05-14T01:54:05.019Z,97.83
2019-05-14T01:55:05.024Z,97.5
2019-05-14T01:56:05.030Z,97.5
2019-05-14T01:57:05.161Z,97.41
2019-05-14T01:58:05.173Z,97.69
2019-05-14T01:59:05.031Z,97.55
2019-05-14T02:00:05.083Z,98.21
2019-05-14T02:01:05.393Z,97.83
2019-05-14T02:02:05.191Z,97.74
2019-05-14T02:03:05.156Z,98.11
2019-05-14T02:04:05.087Z,98.4
2019-05-14T02:05:05.031Z,98.87
2019-05-14T02:06:05.144Z,98.49
2019-05-14T02:07:05.123Z,98.78
2019-05-14T02:08:05.053Z,98.21
2019-05-14T02:09:05.058Z,98.02
2019-05-14T02:10:05.047Z,97.92
2019-05-14T02:11:05.046Z,97.64
2019-05-14T02:12:05.060Z,97.45
2019-05-14T02:13:05.017Z,97.36
2019-05-14T02:14:05.232Z,97.64
2019-05-14T02:15:05.236Z,97.64
2019-05-14T02:16:05.603Z,97.55
2019-05-14T02:17:05.085Z,97.45
2019-05-14T02:18:05.183Z,97.55
2019-05-14T02:19:05.050Z,97.26
2019-05-14T02:20:05.055Z,97.26
2019-05-14T02:21:05.040Z,97.45
2019-05-14T02:22:05.251Z,97.64
2019-05-14T02:23:05.090Z,97.45
2019-05-14T02:24:05.050Z,97.36
2019-05-14T02:25:05.159Z,97.64
2019-05-14T02:26:05.420Z,97.45
2019-05-14T02:27:05.188Z,97.69
2019-05-14T02:28:05.045Z,98.11
2019-05-14T02:29:05.137Z,97.5
2019-05-14T02:30:05.224Z,98.54
2019-05-14T02:31:09.333Z,98.44
2019-05-14T02:32:05.185Z,97.78
2019-05-14T02:33:05.073Z,98.35
2019-05-14T02:34:05.047Z,98.16
2019-05-14T02:35:05.138Z,98.63
2019-05-14T02:36:05.080Z,98.25
2019-05-14T02:37:05.086Z,98.73
2019-05-14T02:38:05.174Z,98.44
2019-05-14T02:39:05.085Z,98.82
2019-05-14T02:40:05.070Z,98.35
2019-05-14T02:41:05.088Z,98.16
2019-05-14T02:42:05.066Z,98.02
2019-05-14T02:43:05.065Z,98.16
2019-05-14T02:44:05.093Z,98.59
2019-05-14T02:45:05.177Z,98.44
2019-05-14T02:46:17.301Z,97.74
2019-05-14T02:47:05.123Z,97.64
2019-05-14T02:48:05.137Z,97.97
2019-05-14T02:49:05.143Z,98.07
2019-05-14T02:50:05.067Z,98.54
2019-05-14T02:51:05.060Z,98.44
2019-05-14T02:52:05.100Z,98.25
2019-05-14T02:53:05.070Z,97.78
2019-05-14T02:54:05.158Z,97.97
2019-05-14T02:55:05.122Z,97.88
2019-05-14T02:56:05.108Z,97.59
2019-05-14T02:57:05.344Z,97.83
2019-05-14T02:58:05.146Z,97.36
2019-05-14T02:59:09.667Z,97.64
2019-05-14T03:00:05.577Z,97.55
2019-05-14T03:01:05.089Z,97.36
2019-05-14T03:02:05.179Z,97.83
2019-05-14T03:03:05.120Z,97.92
2019-05-14T03:04:05.088Z,97.88
2019-05-14T03:05:05.159Z,97.83
2019-05-14T03:06:05.117Z,97.5
2019-05-14T03:07:05.131Z,98.02
2019-05-14T03:08:05.191Z,97.83
2019-05-14T03:09:05.137Z,97.36
2019-05-14T03:10:05.106Z,97.64
2019-05-14T03:11:05.094Z,97.36
2019-05-14T03:12:05.374Z,97.45
2019-05-14T03:13:05.086Z,97.83
2019-05-14T03:14:05.127Z,97.5
2019-05-14T03:15:05.381Z,97.69
2019-05-14T03:16:30.719Z,97.26
2019-05-14T03:17:05.148Z,97.55
2019-05-14T03:18:09.006Z,98.07
2019-05-14T03:23:17.721Z,99.01
2019-05-14T03:24:00.674Z,98.92
2019-05-14T03:24:59.757Z,98.92
2019-05-14T03:26:00.344Z,99.39
2019-05-14T03:26:58.798Z,99.2
2019-05-14T03:27:59.808Z,99.3
2019-05-14T03:29:00.017Z,99.11
2019-05-14T03:30:01.170Z,99.01
2019-05-14T03:31:02.595Z,99.01
2019-05-14T03:32:02.715Z,98.73
2019-05-14T03:33:02.541Z,99.87
2019-05-14T03:34:02.636Z,99.77
2019-05-14T03:35:03.464Z,99.87
2019-05-14T03:36:17.106Z,99.87
2019-05-14T03:37:02.992Z,99.96
2019-05-14T03:38:00.367Z,99.87
2019-05-14T03:38:59.331Z,99.96
2019-05-14T03:39:59.395Z,99.87
2019-05-14T03:41:00.089Z,99.49
2019-05-14T03:42:01.479Z,99.49
2019-05-14T03:42:59.773Z,99.3
2019-05-14T03:44:00.001Z,99.77
2019-05-14T03:44:59.569Z,99.96
2019-05-14T03:46:01.899Z,99.99
2019-05-14T03:47:09.921Z,99.99
2019-05-14T03:48:01.423Z,99.99
2019-05-14T03:49:00.020Z,99.99
2019-05-14T03:50:01.452Z,99.96
2019-05-14T03:51:00.055Z,99.58
2019-05-14T03:52:00.322Z,99.77
2019-05-14T03:52:59.323Z,99.3
2019-05-14T03:54:12.540Z,99.39
2019-05-14T03:56:55.791Z,99.49
2019-05-14T03:57:55.464Z,99.49
2019-05-14T03:58:55.480Z,99.96
2019-05-14T03:59:55.500Z,99.99
2019-05-14T04:00:55.495Z,99.96
2019-05-14T04:01:55.496Z,99.87
2019-05-14T04:02:55.489Z,99.99
2019-05-14T04:03:55.487Z,99.99
2019-05-14T04:04:55.472Z,99.99
2019-05-14T04:05:55.486Z,99.96
2019-05-14T04:06:55.524Z,99.99
2019-05-14T04:07:55.452Z,99.99
2019-05-14T04:08:55.498Z,99.99
2019-05-14T04:09:55.486Z,99.99
2019-05-14T04:10:59.038Z,99.99
2019-05-14T04:11:55.521Z,99.99
2019-05-14T04:12:55.531Z,99.99
2019-05-14T04:13:55.469Z,99.99
2019-05-14T04:14:55.475Z,99.99
2019-05-14T04:15:55.482Z,99.99
2019-05-14T04:17:10.788Z,99.99
2019-05-14T04:27:15.345Z,99.99
2019-05-14T04:28:12.539Z,99.99
2019-05-14T04:29:12.817Z,99.99
2019-05-14T04:30:12.175Z,99.49
2019-05-14T04:31:12.507Z,99.54
2019-05-14T04:32:12.175Z,99.99
2019-05-14T04:33:13.315Z,99.63
2019-05-14T04:34:13.387Z,99.49
2019-05-14T04:35:12.268Z,99.44
2019-05-14T04:36:12.661Z,99.82
2019-05-14T04:37:12.349Z,99.35
2019-05-14T04:38:12.307Z,99.35
2019-05-14T04:39:12.190Z,99.82
2019-05-14T04:40:12.784Z,99.63
2019-05-14T04:41:13.122Z,99.91
2019-05-14T04:42:12.379Z,99.35
2019-05-14T04:43:12.958Z,99.16
2019-05-14T04:44:12.530Z,99.16
2019-05-14T04:45:13.830Z,99.26
2019-05-14T04:46:13.390Z,98.68
2019-05-14T04:47:35.880Z,98.21
2019-05-14T04:48:37.020Z,98.59
2019-05-14T04:49:12.448Z,98.4
2019-05-14T04:50:13.328Z,98.59
2019-05-14T04:51:12.559Z,98.78
2019-05-14T04:52:12.772Z,98.49
2019-05-14T04:53:11.750Z,98.16
2019-05-14T04:54:12.232Z,97.5
2019-05-14T04:55:12.722Z,97.41
2019-05-14T04:56:12.704Z,97.31
2019-05-14T04:57:13.183Z,97.12
2019-05-14T04:58:12.803Z,97.31
2019-05-14T04:59:13.215Z,97.17
2019-05-14T05:00:14.699Z,97.41
2019-05-14T05:01:12.615Z,96.93
2019-05-14T05:02:12.231Z,96.55
2019-05-14T05:03:14.879Z,96.36
2019-05-14T05:04:12.252Z,96.17
2019-05-14T05:05:11.790Z,95.89
2019-05-14T05:06:12.688Z,95.51
2019-05-14T05:07:12.679Z,95.12
2019-05-14T05:08:14.293Z,94.93
2019-05-14T05:09:12.134Z,94.74
2019-05-14T05:10:12.882Z,94.56
2019-05-14T05:11:12.050Z,94.27
2019-05-14T05:12:11.829Z,94.08
2019-05-14T05:13:11.876Z,94.51
2019-05-14T05:14:11.533Z,94.13
2019-05-14T05:15:12.093Z,94.42
2019-05-14T05:16:12.714Z,94.51
2019-05-14T05:17:11.983Z,93.65
2019-05-14T05:18:12.263Z,93.65
2019-05-14T05:19:12.941Z,92.99
2019-05-14T05:20:12.760Z,92.51
2019-05-14T05:21:11.438Z,92.71
2019-05-14T05:22:10.791Z,92.51
2019-05-14T05:23:11.139Z,92.13
2019-05-14T05:24:11.848Z,91.85
2019-05-14T05:25:11.034Z,91.56
2019-05-14T05:26:11.762Z,91.75
2019-05-14T05:27:11.994Z,91.56
2019-05-14T05:28:11.507Z,91.09
2019-05-14T05:29:13.050Z,91.13
2019-05-14T05:30:11.149Z,90.75
2019-05-14T05:31:12.060Z,90.52
2019-05-14T05:32:11.557Z,90.28
2019-05-14T05:33:11.746Z,90.19
2019-05-14T05:34:11.621Z,89.61
2019-05-14T05:35:12.181Z,90.09
2019-05-14T05:36:12.174Z,90.37
2019-05-14T05:37:11.362Z,89.9
2019-05-14T05:38:11.402Z,89.8
2019-05-14T05:39:11.334Z,89.42
2019-05-14T05:40:11.893Z,89.42
2019-05-14T05:41:11.614Z,88.95
2019-05-14T05:42:11.986Z,88.28
2019-05-14T05:43:11.578Z,88.28
2019-05-14T05:44:10.869Z,88.28
2019-05-14T05:45:10.796Z,88.33
2019-05-14T05:46:11.360Z,88.61
2019-05-14T05:47:12.014Z,88.8
2019-05-14T05:48:11.003Z,88.61
2019-05-14T05:49:10.778Z,88.33
2019-05-14T05:50:11.448Z,88.42
2019-05-14T05:51:11.806Z,88.33
2019-05-14T05:52:11.290Z,88.23
2019-05-14T05:53:11.715Z,87.71
2019-05-14T05:54:11.920Z,87.57
2019-05-14T05:55:11.634Z,86.71
2019-05-14T05:56:11.622Z,86.18
2019-05-14T05:57:12.004Z,86.94
2019-05-14T05:58:11.361Z,86.47
2019-05-14T05:59:12.221Z,86.57
2019-05-14T06:00:12.127Z,85.24
2019-05-14T06:01:12.378Z,85.52
2019-05-14T06:02:12.102Z,85.24
2019-05-14T06:03:13.726Z,84.95
2019-05-14T06:04:11.412Z,85.85
2019-05-14T06:05:10.809Z,85.56
2019-05-14T06:06:16.445Z,84.7
2019-05-14T06:07:11.510Z,83.18
2019-05-14T06:08:11.296Z,83.09
2019-05-14T06:09:11.629Z,83.09
2019-05-14T06:10:10.723Z,82.37
2019-05-14T06:11:11.178Z,82.56
2019-05-14T06:12:11.448Z,82.46
2019-05-14T06:13:13.892Z,82.18
2019-05-14T06:14:11.046Z,81.98
2019-05-14T06:15:14.154Z,81.7
2019-05-14T06:16:12.225Z,80.69
2019-05-14T06:17:11.294Z,80.22
2019-05-14T06:18:21.798Z,79.64
2019-05-14T06:19:10.944Z,79.17
2019-05-14T06:20:11.354Z,78.44
2019-05-14T06:21:11.873Z,78.01
2019-05-14T06:22:12.602Z,77.15
2019-05-14T06:23:11.093Z,77.06
2019-05-14T06:24:11.713Z,76.14
2019-05-14T06:25:14.052Z,74.71
2019-05-14T06:26:14.334Z,74.84
2019-05-14T06:27:12.137Z,73.6
2019-05-14T06:28:11.336Z,73.69
2019-05-14T06:29:11.260Z,73.07
2019-05-14T06:30:11.781Z,72.87
2019-05-14T06:31:12.678Z,72.39
2019-05-14T06:32:11.996Z,72.39
2019-05-14T06:33:11.942Z,71.38
2019-05-14T06:34:12.237Z,70.42
2019-05-14T06:35:11.507Z,70.04
2019-05-14T06:36:14.457Z,70.23
2019-05-14T06:37:11.107Z,70.52
2019-05-14T06:38:11.597Z,70.33
2019-05-14T06:39:11.859Z,70.36
2019-05-14T06:40:11.486Z,70.46
2019-05-14T06:41:11.107Z,70.3
2019-05-14T06:42:11.508Z,70.01
2019-05-14T06:43:11.873Z,69.98
2019-05-14T06:44:11.872Z,69.64
2019-05-14T06:45:11.673Z,68.77
2019-05-14T06:46:11.721Z,68.93
2019-05-14T06:47:11.996Z,68.68
2019-05-14T06:48:25.461Z,68.84
2019-05-14T06:49:11.781Z,68.2
2019-05-14T06:50:11.240Z,68.58
2019-05-14T06:51:11.517Z,68.1
2019-05-14T06:52:11.481Z,68.16
2019-05-14T06:53:11.177Z,68.33
2019-05-14T06:54:11.959Z,68.23
2019-05-14T06:55:11.702Z,68.9
2019-05-14T06:56:10.824Z,68.65
2019-05-14T06:57:11.598Z,68.42
2019-05-14T06:58:11.852Z,67.66
2019-05-14T06:59:11.714Z,68.23
2019-05-14T07:00:11.017Z,68.27
2019-05-14T07:01:12.364Z,68.04
2019-05-14T07:02:11.406Z,67.69
2019-05-14T07:03:11.652Z,67.18
2019-05-14T07:04:11.680Z,67.02
2019-05-14T07:05:11.077Z,65.88
2019-05-14T07:06:11.775Z,65.97
2019-05-14T07:07:11.235Z,65.55
2019-05-14T07:08:11.663Z,65.39
2019-05-14T07:09:10.940Z,65.55
2019-05-14T07:10:11.758Z,65.01
2019-05-14T07:11:11.256Z,65.55
2019-05-14T07:12:11.893Z,66.06
2019-05-14T07:13:11.314Z,66
2019-05-14T07:14:14.063Z,66.06
2019-05-14T07:15:12.038Z,66.32
2019-05-14T07:16:11.696Z,65.39
2019-05-14T07:17:11.854Z,65.88
2019-05-14T07:18:11.281Z,65.68
2019-05-14T07:19:12.129Z,64.95
2019-05-14T07:20:11.560Z,65.49
2019-05-14T07:21:10.973Z,65.11
2019-05-14T07:22:11.697Z,65.39
2019-05-14T07:23:10.985Z,65.49
2019-05-14T07:24:11.466Z,64.79
2019-05-14T07:25:12.677Z,64.76
2019-05-14T07:26:12.295Z,65.65
2019-05-14T07:27:19.214Z,64.59
2019-05-14T07:28:14.049Z,63.73
2019-05-14T07:29:18.612Z,63.73
2019-05-14T07:30:11.647Z,64.31
2019-05-14T07:31:12.491Z,63.92
2019-05-14T07:32:11.815Z,64.05
2019-05-14T07:33:12.198Z,64.72
2019-05-14T07:34:11.629Z,64.12
2019-05-14T07:35:12.933Z,62.81
2019-05-14T07:36:13.960Z,63.12
2019-05-14T07:37:12.314Z,62.74
2019-05-14T07:38:11.699Z,62.52
2019-05-14T07:39:12.090Z,62.71
2019-05-14T07:40:11.259Z,62.74
2019-05-14T07:41:12.022Z,61.75
2019-05-14T07:42:12.543Z,61.27
2019-05-14T07:43:11.885Z,61.46
2019-05-14T07:44:13.358Z,61.63
2019-05-14T07:45:14.221Z,61.5
2019-05-14T07:46:12.856Z,61.79
2019-05-14T07:47:11.002Z,61.69
2019-05-14T07:48:12.117Z,61.91
2019-05-14T07:49:14.281Z,61.21
2019-05-14T07:50:11.350Z,61.34
2019-05-14T07:51:11.632Z,61.53
2019-05-14T07:52:12.243Z,60.67
2019-05-14T07:53:13.150Z,59.68
2019-05-14T07:54:15.874Z,60.44
2019-05-14T07:55:13.866Z,60.06
2019-05-14T07:56:12.186Z,59.87
2019-05-14T07:57:24.552Z,59.58
2019-05-14T07:58:11.113Z,59.65
2019-05-14T07:59:11.606Z,60
2019-05-14T08:00:10.957Z,60.41
2019-05-14T08:01:12.243Z,60.19
2019-05-14T08:02:15.498Z,61.08
2019-05-14T08:03:14.461Z,60.83
2019-05-14T08:04:19.362Z,59.48
2019-05-14T08:05:14.485Z,59.08
2019-05-14T08:06:11.099Z,58.98
2019-05-14T08:07:11.804Z,58.98
2019-05-14T08:08:10.731Z,59.11
2019-05-14T08:09:11.302Z,58.15
2019-05-14T08:10:11.764Z,58.22
2019-05-14T08:11:12.489Z,56.52
2019-05-14T08:12:12.840Z,55.91
2019-05-14T08:13:11.130Z,56.1
2019-05-14T08:14:11.790Z,57.26
2019-05-14T08:15:22.433Z,57.64
2019-05-14T08:16:11.683Z,57.16
2019-05-14T08:17:11.322Z,57.73
2019-05-14T08:18:10.894Z,57.38
2019-05-14T08:19:27.747Z,57.21
2019-05-14T08:20:11.730Z,57.28
2019-05-14T08:21:11.082Z,57.28
2019-05-14T08:22:12.253Z,57.83
2019-05-14T08:23:11.753Z,58.12
2019-05-14T08:24:15.275Z,57.83
2019-05-14T08:25:11.230Z,58.59
2019-05-14T08:26:10.740Z,58.81
2019-05-14T08:27:27.829Z,58.62
2019-05-14T08:28:10.822Z,58.17
2019-05-14T08:29:11.345Z,58.62
2019-05-14T08:30:10.894Z,57.64
2019-05-14T08:31:12.112Z,57.86
2019-05-14T08:32:11.540Z,57.09
2019-05-14T08:33:11.594Z,57.64
2019-05-14T08:34:11.863Z,57.95
2019-05-14T08:35:11.716Z,58.53
2019-05-14T08:36:11.594Z,57.95
2019-05-14T08:37:11.015Z,57.28
2019-05-14T08:38:14.641Z,56.71
2019-05-14T08:39:11.486Z,56.42
2019-05-14T08:40:16.303Z,56.42
2019-05-14T08:41:11.194Z,56.45
2019-05-14T08:42:11.446Z,56.26
2019-05-14T08:43:11.332Z,55.94
2019-05-14T08:44:11.276Z,56.54
2019-05-14T08:45:14.809Z,56.83
2019-05-14T08:46:12.093Z,56.09
2019-05-14T08:47:12.314Z,55.71
2019-05-14T08:48:11.854Z,55.68
2019-05-14T08:49:12.426Z,55.42
2019-05-14T08:50:18.958Z,56.45
2019-05-14T08:51:11.834Z,56.6
2019-05-14T08:52:11.515Z,56.31
2019-05-14T08:53:11.721Z,56.45
2019-05-14T08:54:10.952Z,57.15
2019-05-14T08:55:18.296Z,57.03
2019-05-14T08:56:13.075Z,57.28
2019-05-14T08:57:21.930Z,57.21
2019-05-14T08:58:19.469Z,57.15
2019-05-14T08:59:11.400Z,56.35
2019-05-14T09:00:18.281Z,57.21
2019-05-14T09:01:11.017Z,57.72
2019-05-14T09:02:13.450Z,57.92
2019-05-14T09:03:11.178Z,57.03
2019-05-14T09:04:11.739Z,57.21
2019-05-14T09:05:13.164Z,56.83
2019-05-14T09:06:11.891Z,56.16
2019-05-14T09:07:12.229Z,56.32
2019-05-14T09:08:11.517Z,56.9
2019-05-14T09:09:12.016Z,57.73
2019-05-14T09:10:11.470Z,57.8
2019-05-14T09:11:12.684Z,58.02
2019-05-14T09:12:15.372Z,57.86
2019-05-14T09:13:11.321Z,58.15
2019-05-14T09:14:13.913Z,57.79
2019-05-14T09:15:12.592Z,57.79
2019-05-14T09:16:12.002Z,57.09
2019-05-14T09:17:14.618Z,55.68
2019-05-14T09:18:14.514Z,55.62
2019-05-14T09:19:11.406Z,55.75
2019-05-14T09:20:13.871Z,56.52
2019-05-14T09:21:11.417Z,56.71
2019-05-14T09:22:12.264Z,57.16
2019-05-14T09:23:11.840Z,57.73
2019-05-14T09:24:12.274Z,58.22
2019-05-14T09:25:11.185Z,58.59
2019-05-14T09:26:12.332Z,58.15
2019-05-14T09:27:11.194Z,58.12
2019-05-14T09:28:11.783Z,58.02
2019-05-14T09:29:25.953Z,58.22
2019-05-14T09:30:12.402Z,57.9
2019-05-14T09:31:11.184Z,58.95
2019-05-14T09:32:12.259Z,58.79
2019-05-14T09:33:11.341Z,59.2
2019-05-14T09:34:11.917Z,57.79
2019-05-14T09:35:12.477Z,56.45
2019-05-14T09:36:24.062Z,56.45
2019-05-14T09:37:11.364Z,57.12
2019-05-14T09:38:11.617Z,57.43
2019-05-14T09:39:14.714Z,57.21
2019-05-14T09:40:11.408Z,56.26
2019-05-14T09:41:18.525Z,56.38
2019-05-14T09:42:10.973Z,56.16
2019-05-14T09:43:11.877Z,56.42
2019-05-14T09:44:11.986Z,56.32
2019-05-14T09:45:13.670Z,57.26
2019-05-14T09:46:11.753Z,56.35
2019-05-14T09:47:11.434Z,56.16
2019-05-14T09:48:11.538Z,56.04
2019-05-14T09:49:10.774Z,56.45
2019-05-14T09:50:23.293Z,57.31
2019-05-14T09:51:11.950Z,57.12
2019-05-14T09:52:11.690Z,56.99
2019-05-14T09:53:12.437Z,57.76
2019-05-14T09:54:11.208Z,58.02
2019-05-14T09:55:12.058Z,59.01
2019-05-14T09:56:11.843Z,58.15
2019-05-14T09:57:11.024Z,57.89
2019-05-14T09:58:10.937Z,57.03
2019-05-14T09:59:12.012Z,57.03
2019-05-14T10:00:14.471Z,56.19
2019-05-14T10:01:11.257Z,55.33
2019-05-14T10:02:11.959Z,55.49
2019-05-14T10:03:12.367Z,56.04
2019-05-14T10:04:11.860Z,56.23
2019-05-14T10:05:11.751Z,56.42
2019-05-14T10:06:12.424Z,56.37
2019-05-14T10:07:15.143Z,56.3
2019-05-14T10:08:11.696Z,57.35
2019-05-14T10:09:11.365Z,56.99
2019-05-14T10:10:10.654Z,56.19
2019-05-14T10:11:10.654Z,55.97
2019-05-14T10:12:11.646Z,55.56
2019-05-14T10:13:12.456Z,55.08
2019-05-14T10:14:10.781Z,55.08
2019-05-14T10:15:11.520Z,55.46
2019-05-14T10:16:12.200Z,57.13
2019-05-14T10:17:10.655Z,57.61
2019-05-14T10:18:14.874Z,58.28
2019-05-14T10:19:10.630Z,58.66
2019-05-14T10:20:11.533Z,59.05
2019-05-14T10:21:11.357Z,59.52
2019-05-14T10:22:11.073Z,59.59
2019-05-14T10:23:11.946Z,59.01
2019-05-14T10:24:12.015Z,59.23
2019-05-14T10:25:11.816Z,60.48
2019-05-14T10:26:11.800Z,59.3
2019-05-14T10:27:11.720Z,57.86
2019-05-14T10:28:11.269Z,57.19
2019-05-14T10:29:11.364Z,57.26
2019-05-14T10:30:12.898Z,57.8
2019-05-14T10:31:13.382Z,57.8
2019-05-14T10:32:11.480Z,58.25
2019-05-14T10:33:18.062Z,58.92
2019-05-14T10:34:11.079Z,58.66
2019-05-14T10:35:11.216Z,58.4
2019-05-14T10:36:11.892Z,57.92
2019-05-14T10:37:11.420Z,58.18
2019-05-14T10:38:11.477Z,58.09
2019-05-14T10:39:12.054Z,58.56
2019-05-14T10:40:13.146Z,58.95
2019-05-14T10:41:11.681Z,59.01
2019-05-14T10:42:11.602Z,59.52
2019-05-14T10:43:11.823Z,60.13
2019-05-14T10:44:11.883Z,59.75
2019-05-14T10:45:15.287Z,59.43
2019-05-14T10:46:11.779Z,58.37
2019-05-14T10:47:12.048Z,59.14
2019-05-14T10:48:12.338Z,60.13
2019-05-14T10:49:23.607Z,58.91
2019-05-14T10:50:18.253Z,58.15
2019-05-14T10:51:12.610Z,58.44
2019-05-14T10:52:11.073Z,58.05
2019-05-14T10:53:11.757Z,57.67
2019-05-14T10:54:26.691Z,58.34
2019-05-14T10:55:10.773Z,58.17
2019-05-14T10:56:12.514Z,57.15
2019-05-14T10:57:12.380Z,56.38
2019-05-14T10:58:11.643Z,56.19
2019-05-14T10:59:12.168Z,55.8
2019-05-14T11:00:11.576Z,54.94
2019-05-14T11:01:14.049Z,54.49
2019-05-14T11:02:14.439Z,54.75
2019-05-14T11:03:10.739Z,54.78
2019-05-14T11:04:10.767Z,54.88
2019-05-14T11:05:10.732Z,54.68
2019-05-14T11:06:14.261Z,54.39
2019-05-14T11:07:10.746Z,53.56
2019-05-14T11:08:14.441Z,53.58
2019-05-14T11:09:11.783Z,53.49
2019-05-14T11:10:11.911Z,54.71
2019-05-14T11:11:13.351Z,53.58
2019-05-14T11:12:11.679Z,53.75
2019-05-14T11:13:11.690Z,54.49
2019-05-14T11:14:11.510Z,55.07
2019-05-14T11:15:10.755Z,56.19
2019-05-14T11:16:11.337Z,56.48
2019-05-14T11:17:14.617Z,56.38
2019-05-14T11:18:11.350Z,56.96
2019-05-14T11:19:12.156Z,57.03
2019-05-14T11:20:10.793Z,57.48
2019-05-14T11:21:27.328Z,57.57
2019-05-14T11:22:11.193Z,57.89
2019-05-14T11:23:11.664Z,58.24
2019-05-14T11:24:12.172Z,57.48
2019-05-14T11:25:11.932Z,57.28
2019-05-14T11:26:12.010Z,57.19
2019-05-14T11:27:10.754Z,57.7
2019-05-14T11:28:10.849Z,58.11
2019-05-14T11:29:10.872Z,57.06
2019-05-14T11:30:11.554Z,56.96
2019-05-14T11:31:11.909Z,55.9
2019-05-14T11:32:12.452Z,56.51
2019-05-14T11:33:11.848Z,55.47
2019-05-14T11:34:11.046Z,54.97
2019-05-14T11:35:15.634Z,53.89
2019-05-14T11:36:12.083Z,53.96
2019-05-14T11:37:11.393Z,54.53
2019-05-14T11:38:37.105Z,54.7
2019-05-14T11:39:12.163Z,54.56
2019-05-14T11:40:11.398Z,54.66
2019-05-14T11:41:12.307Z,54.05
2019-05-14T11:42:11.289Z,54.17
2019-05-14T11:43:11.164Z,54.01
2019-05-14T11:44:11.854Z,55.83
2019-05-14T11:45:11.884Z,53.68
2019-05-14T11:46:11.413Z,52.69
2019-05-14T11:47:11.767Z,52.22
2019-05-14T11:48:11.544Z,52.55
2019-05-14T11:49:11.488Z,53.19
2019-05-14T11:50:12.623Z,53.7
2019-05-14T11:51:11.815Z,53.12
2019-05-14T11:52:14.343Z,52.64
2019-05-14T11:53:11.209Z,52.48
2019-05-14T11:54:12.163Z,52.26
2019-05-14T11:55:11.774Z,52.42
2019-05-14T11:56:11.478Z,53.19
2019-05-14T11:57:14.521Z,53.86
2019-05-14T11:58:11.431Z,54.15
2019-05-14T11:59:11.329Z,54.53
2019-05-14T12:00:11.349Z,55.71
2019-05-14T12:01:11.921Z,55
2019-05-14T12:02:12.278Z,54.61
2019-05-14T12:03:11.909Z,54.49
2019-05-14T12:04:11.691Z,54.49
2019-05-14T12:05:11.497Z,54.8
2019-05-14T12:06:12.528Z,55.35
2019-05-14T12:07:12.348Z,56.22
2019-05-14T12:08:11.374Z,55.19
2019-05-14T12:09:14.672Z,56.19
2019-05-14T12:10:11.761Z,55.26
2019-05-14T12:11:11.430Z,55.42
2019-05-14T12:12:15.144Z,55.71
2019-05-14T12:13:11.325Z,54.49
2019-05-14T12:14:11.705Z,53.5
2019-05-14T12:15:11.578Z,53.28
2019-05-14T12:16:11.329Z,53.74
2019-05-14T12:17:12.176Z,53.77
2019-05-14T12:18:13.084Z,54.12
2019-05-14T12:19:14.500Z,54.44
2019-05-14T12:20:10.855Z,55.08
2019-05-14T12:21:11.659Z,55.94
2019-05-14T12:22:14.545Z,55.27
2019-05-14T12:23:11.571Z,54.99
2019-05-14T12:24:18.275Z,54.32
2019-05-14T12:25:10.935Z,54.63
2019-05-14T12:26:12.275Z,54.82
2019-05-14T12:27:11.556Z,54.05
2019-05-14T12:28:18.893Z,54.41
2019-05-14T12:29:12.608Z,54.24
2019-05-14T12:30:12.407Z,54.99
2019-05-14T12:31:12.045Z,55.11
2019-05-14T12:32:15.663Z,55.52
2019-05-14T12:33:10.905Z,55.68
2019-05-14T12:34:10.881Z,55.33
2019-05-14T12:35:11.256Z,55.33
2019-05-14T12:36:13.060Z,55.45
2019-05-14T12:37:11.777Z,54.3
2019-05-14T12:38:12.751Z,53.5
2019-05-14T12:39:12.319Z,52.71
2019-05-14T12:40:11.574Z,53.26
2019-05-14T12:41:11.924Z,53.67
2019-05-14T12:42:13.348Z,53.55
2019-05-14T12:43:12.286Z,53.45
2019-05-14T12:44:12.067Z,54.6
2019-05-14T12:45:11.895Z,55.49
2019-05-14T12:46:13.187Z,54.72
2019-05-14T12:47:12.171Z,54.24
2019-05-14T12:48:11.976Z,53.96
2019-05-14T12:49:14.357Z,54.34
2019-05-14T12:50:12.079Z,53.41
2019-05-14T12:51:11.725Z,53.09
2019-05-14T12:52:29.506Z,53.79
2019-05-14T12:53:11.285Z,53.7
2019-05-14T12:54:11.978Z,53.7
2019-05-14T12:55:11.954Z,53.5
2019-05-14T12:56:11.408Z,53.5
2019-05-14T12:57:10.908Z,53.5
2019-05-14T12:58:10.948Z,54.05
2019-05-14T12:59:11.265Z,54.34
2019-05-14T13:00:11.640Z,54.41
2019-05-14T13:01:11.831Z,54.6
2019-05-14T13:02:12.441Z,54.77
2019-05-14T13:03:11.829Z,55.53
2019-05-14T13:04:11.213Z,55.63
2019-05-14T13:05:11.712Z,55.73
2019-05-14T13:06:12.870Z,56.3
2019-05-14T13:07:11.848Z,56.01
2019-05-14T13:08:14.110Z,56.08
2019-05-14T13:09:12.043Z,56.17
2019-05-14T13:10:11.893Z,56.01
2019-05-14T13:12:32.390Z,56.37
2019-05-14T13:13:31.717Z,56.46
2019-05-14T13:14:31.004Z,57.7
2019-05-14T13:15:31.379Z,57.45